createdAt,value
2023-03-25T00:02:24.000Z,3.42
2023-03-25T00:04:52.191Z,4.70
2023-03-25T00:07:20.189Z,4.30
2023-03-25T00:09:47.992Z,2.78
2023-03-25T00:12:16.247Z,3.38
2023-03-25T00:14:44.403Z,2.38
2023-03-25T00:17:13.814Z,2.72
2023-03-25T00:19:41.416Z,3.28
2023-03-25T00:22:08.760Z,3.00
2023-03-25T00:24:35.583Z,3.08
2023-03-25T00:27:02.497Z,2.08
2023-03-25T00:29:29.183Z,3.25
2023-03-25T00:31:55.929Z,4.20
2023-03-25T00:34:22.724Z,2.47
2023-03-25T00:36:49.541Z,1.77
2023-03-25T00:39:16.209Z,2.65
2023-03-25T00:41:43.449Z,1.98
2023-03-25T00:44:12.362Z,2.10
2023-03-25T00:46:39.081Z,2.95
2023-03-25T00:49:05.902Z,3.95
2023-03-25T00:51:33.952Z,3.30
2023-03-25T00:54:01.204Z,3.30
2023-03-25T00:56:28.794Z,3.13
2023-03-25T00:58:56.545Z,2.65
2023-03-25T01:01:27.855Z,2.53
2023-03-25T01:03:57.970Z,4.18
2023-03-25T01:06:34.898Z,4.07
2023-03-25T01:09:03.450Z,1.98
2023-03-25T01:11:34.546Z,1.95
2023-03-25T01:14:01.407Z,2.38
2023-03-25T01:16:28.604Z,4.43
2023-03-25T01:18:55.737Z,2.88
2023-03-25T01:21:22.581Z,3.75
2023-03-25T01:23:49.560Z,3.35
2023-03-25T01:26:16.287Z,2.75
2023-03-25T01:28:43.484Z,2.70
2023-03-25T01:31:11.971Z,2.65
2023-03-25T01:33:38.747Z,2.58
2023-03-25T01:36:09.686Z,1.65
2023-03-25T01:38:37.235Z,2.42
2023-03-25T01:41:04.469Z,2.78
2023-03-25T01:43:31.870Z,2.33
2023-03-25T01:45:58.706Z,2.60
2023-03-25T01:48:28.222Z,2.25
2023-03-25T01:50:58.151Z,2.33
2023-03-25T01:53:27.027Z,1.58
2023-03-25T01:55:54.858Z,1.70
2023-03-25T01:58:22.386Z,4.32
2023-03-25T02:00:50.302Z,2.67
2023-03-25T02:03:17.793Z,2.47
2023-03-25T02:06:02.722Z,3.83
2023-03-25T02:08:38.593Z,2.70
2023-03-25T02:11:09.297Z,3.25
2023-03-25T02:13:37.880Z,3.05
2023-03-25T02:16:15.029Z,1.98
2023-03-25T02:19:05.037Z,2.97
2023-03-25T02:21:46.383Z,4.30
2023-03-25T02:24:35.557Z,2.03
2023-03-25T02:27:33.737Z,3.63
2023-03-25T02:30:38.929Z,4.45
2023-03-25T02:33:39.853Z,1.67
2023-03-25T02:36:24.763Z,1.98
2023-03-25T02:39:08.839Z,4.45
2023-03-25T02:41:38.605Z,2.28
2023-03-25T02:44:20.957Z,2.40
2023-03-25T02:46:54.452Z,1.27
2023-03-25T02:49:27.790Z,3.53
2023-03-25T02:52:08.335Z,2.67
2023-03-25T02:54:36.920Z,3.03
2023-03-25T02:57:03.919Z,2.67
2023-03-25T02:59:33.305Z,2.90
2023-03-25T03:02:01.040Z,4.20
2023-03-25T03:04:27.781Z,2.38
2023-03-25T03:06:55.833Z,3.70
2023-03-25T03:09:25.832Z,6.38
2023-03-25T03:12:17.287Z,2.60
2023-03-25T03:14:53.803Z,2.15
2023-03-25T03:17:58.199Z,1.92
2023-03-25T03:20:42.594Z,4.05
2023-03-25T03:23:14.703Z,2.80
2023-03-25T03:26:09.035Z,2.10
2023-03-25T03:28:50.479Z,4.18
2023-03-25T03:31:48.804Z,3.15
2023-03-25T03:34:34.654Z,2.78
2023-03-25T03:37:01.425Z,10.35
2023-03-25T03:39:30.683Z,1.65
2023-03-25T03:42:38.823Z,2.17
2023-03-25T03:45:08.683Z,2.20
2023-03-25T03:47:39.087Z,3.53
2023-03-25T03:50:11.782Z,3.30
2023-03-25T03:52:42.278Z,2.67
2023-03-25T03:55:14.493Z,2.60
2023-03-25T03:57:45.969Z,2.38
2023-03-25T04:00:19.497Z,3.20
2023-03-25T04:02:51.099Z,1.77
2023-03-25T04:05:18.485Z,2.72
2023-03-25T04:07:54.713Z,2.22
2023-03-25T04:10:52.726Z,4.53
2023-03-25T04:13:20.901Z,3.00
2023-03-25T04:15:47.693Z,2.22
2023-03-25T04:18:14.423Z,2.78
2023-03-25T04:20:44.735Z,3.35
2023-03-25T04:23:16.353Z,2.70
2023-03-25T04:25:47.763Z,2.85
2023-03-25T04:28:17.715Z,2.17
2023-03-25T04:30:48.738Z,2.47
2023-03-25T04:33:15.481Z,1.63
2023-03-25T04:35:42.166Z,2.45
2023-03-25T04:38:08.914Z,3.13
2023-03-25T04:40:35.574Z,3.28
2023-03-25T04:43:02.267Z,1.80
2023-03-25T04:45:30.735Z,1.38
2023-03-25T04:47:58.026Z,2.50
2023-03-25T04:50:27.202Z,3.55
2023-03-25T04:52:54.176Z,2.10
2023-03-25T04:55:21.603Z,3.45
2023-03-25T04:57:49.432Z,2.33
2023-03-25T05:00:18.010Z,3.60
2023-03-25T05:02:48.532Z,1.60
2023-03-25T05:05:18.192Z,1.25
2023-03-25T05:07:46.487Z,2.08
2023-03-25T05:10:13.856Z,1.80
2023-03-25T05:12:40.671Z,2.80
2023-03-25T05:15:08.549Z,2.75
2023-03-25T05:17:35.460Z,4.50
2023-03-25T05:20:02.465Z,1.48
2023-03-25T05:22:29.114Z,1.83
2023-03-25T05:24:56.373Z,3.80
2023-03-25T05:27:23.094Z,2.42
2023-03-25T05:29:49.837Z,3.13
2023-03-25T05:32:17.967Z,2.60
2023-03-25T05:34:48.113Z,2.45
2023-03-25T05:37:14.772Z,3.20
2023-03-25T05:39:42.355Z,3.35
2023-03-25T05:42:10.777Z,1.83
2023-03-25T05:44:38.696Z,1.88
2023-03-25T05:47:06.084Z,1.70
2023-03-25T05:49:32.791Z,2.15
2023-03-25T05:52:00.020Z,1.55
2023-03-25T05:54:28.512Z,2.47
2023-03-25T05:56:55.432Z,1.63
2023-03-25T05:59:22.159Z,2.22
2023-03-25T06:01:49.970Z,2.42
2023-03-25T06:04:16.896Z,1.98
2023-03-25T06:06:43.677Z,1.45
2023-03-25T06:09:11.829Z,2.15
2023-03-25T06:11:38.896Z,0.98
2023-03-25T06:14:06.282Z,2.25
2023-03-25T06:16:33.857Z,1.33
2023-03-25T06:19:01.096Z,3.47
2023-03-25T06:21:28.708Z,2.40
2023-03-25T06:23:55.550Z,2.63
2023-03-25T06:26:23.009Z,3.55
2023-03-25T06:28:49.655Z,2.20
2023-03-25T06:31:20.772Z,1.55
2023-03-25T06:33:48.288Z,1.48
2023-03-25T06:36:18.797Z,2.72
2023-03-25T06:38:46.172Z,4.60
2023-03-25T06:41:13.940Z,2.80
2023-03-25T06:43:41.315Z,2.72
2023-03-25T06:46:09.239Z,3.47
2023-03-25T06:48:36.023Z,1.33
2023-03-25T06:51:02.775Z,1.75
2023-03-25T06:53:29.524Z,3.30
2023-03-25T06:55:59.556Z,3.75
2023-03-25T06:58:34.474Z,2.42
2023-03-25T07:01:05.985Z,3.08
2023-03-25T07:03:33.413Z,2.53
2023-03-25T07:06:00.211Z,1.35
2023-03-25T07:08:26.875Z,3.60
2023-03-25T07:10:53.919Z,2.85
2023-03-25T07:13:21.047Z,6.05
2023-03-25T07:15:47.907Z,3.75
2023-03-25T07:18:14.729Z,7.20
2023-03-25T07:20:45.937Z,3.53
2023-03-25T07:23:13.350Z,5.05
2023-03-25T07:25:40.082Z,6.53
2023-03-25T07:28:07.933Z,3.53
2023-03-25T07:30:35.006Z,4.88
2023-03-25T07:33:02.160Z,2.83
2023-03-25T07:35:28.983Z,3.08
2023-03-25T07:37:56.023Z,5.45
2023-03-25T07:40:22.722Z,4.40
2023-03-25T07:42:50.133Z,2.65
2023-03-25T07:45:17.270Z,3.72
2023-03-25T07:47:49.951Z,2.15
2023-03-25T07:50:22.083Z,2.80
2023-03-25T07:52:50.142Z,4.75
2023-03-25T07:55:17.318Z,3.20
2023-03-25T07:57:44.418Z,5.22
2023-03-25T08:00:12.241Z,5.28
2023-03-25T08:02:40.011Z,3.17
2023-03-25T08:05:07.814Z,5.97
2023-03-25T08:07:34.944Z,4.30
2023-03-25T08:10:01.982Z,2.45
2023-03-25T08:12:29.035Z,4.25
2023-03-25T08:14:56.119Z,3.42
2023-03-25T08:17:23.527Z,2.78
2023-03-25T08:19:50.866Z,3.50
2023-03-25T08:22:17.920Z,8.85
2023-03-25T08:24:44.935Z,9.27
2023-03-25T08:27:14.070Z,4.45
2023-03-25T08:29:57.761Z,5.47
2023-03-25T08:32:26.556Z,6.20
2023-03-25T08:34:54.074Z,5.60
2023-03-25T08:37:21.626Z,5.75
2023-03-25T08:39:50.403Z,4.78
2023-03-25T08:42:17.279Z,6.18
2023-03-25T08:44:44.025Z,7.35
2023-03-25T08:47:12.395Z,8.38
2023-03-25T08:49:40.475Z,5.25
2023-03-25T08:52:09.993Z,4.60
2023-03-25T08:54:37.692Z,7.07
2023-03-25T08:57:05.945Z,7.88
2023-03-25T08:59:32.872Z,7.18
2023-03-25T09:02:01.301Z,7.53
2023-03-25T09:04:28.610Z,5.70
2023-03-25T09:07:11.047Z,4.57
2023-03-25T09:09:41.346Z,4.70
2023-03-25T09:12:10.142Z,7.15
2023-03-25T09:14:37.856Z,7.40
2023-03-25T09:17:07.943Z,3.40
2023-03-25T09:19:35.625Z,6.10
2023-03-25T09:22:02.663Z,8.18
2023-03-25T09:24:29.746Z,6.18
2023-03-25T09:26:56.741Z,6.40
2023-03-25T09:29:23.717Z,4.18
2023-03-25T09:31:50.441Z,6.97
2023-03-25T09:34:17.097Z,6.60
2023-03-25T09:36:45.777Z,6.25
2023-03-25T09:39:12.444Z,5.80
2023-03-25T09:42:00.362Z,4.90
2023-03-25T09:44:35.794Z,7.45
2023-03-25T09:47:02.604Z,4.07
2023-03-25T09:49:45.983Z,5.10
2023-03-25T09:52:16.748Z,8.38
2023-03-25T09:54:48.875Z,7.57
2023-03-25T09:57:18.669Z,4.70
2023-03-25T09:59:49.019Z,5.18
2023-03-25T10:02:18.725Z,4.00
2023-03-25T10:05:03.527Z,11.25
2023-03-25T10:08:02.346Z,4.32
2023-03-25T10:10:35.333Z,4.85
2023-03-25T10:13:48.818Z,7.72
2023-03-25T10:16:34.427Z,4.90
2023-03-25T10:19:16.429Z,11.52
2023-03-25T10:22:03.085Z,8.20
2023-03-25T10:24:34.144Z,8.90
2023-03-25T10:27:07.696Z,6.45
2023-03-25T10:29:44.343Z,10.07
2023-03-25T10:32:17.437Z,6.72
2023-03-25T10:34:54.274Z,9.40
2023-03-25T10:37:28.735Z,8.85
2023-03-25T10:39:58.412Z,13.75
2023-03-25T10:42:35.165Z,7.57
2023-03-25T10:45:02.062Z,7.90
2023-03-25T10:47:33.470Z,11.85
2023-03-25T10:50:00.399Z,6.95
2023-03-25T10:52:27.076Z,7.88
2023-03-25T10:54:54.929Z,9.40
2023-03-25T10:57:29.087Z,7.05
2023-03-25T11:00:19.510Z,8.88
2023-03-25T11:02:47.182Z,9.20
2023-03-25T11:05:18.947Z,14.85
2023-03-25T11:07:51.055Z,12.15
2023-03-25T11:10:23.499Z,5.75
2023-03-25T11:12:51.904Z,7.00
2023-03-25T11:15:24.141Z,6.07
2023-03-25T11:18:13.713Z,6.72
2023-03-25T11:20:45.801Z,12.27
2023-03-25T11:23:26.336Z,8.27
2023-03-25T11:25:54.196Z,6.00
2023-03-25T11:28:42.868Z,9.20
2023-03-25T11:31:16.684Z,8.30
2023-03-25T11:33:45.438Z,10.65
2023-03-25T11:36:29.052Z,8.30
2023-03-25T11:39:04.433Z,6.70
2023-03-25T11:41:32.712Z,9.05
2023-03-25T11:43:59.438Z,9.35
2023-03-25T11:46:26.216Z,8.60
2023-03-25T11:48:53.095Z,5.40
2023-03-25T11:51:29.901Z,9.63
2023-03-25T11:54:01.327Z,7.22
2023-03-25T11:56:41.255Z,8.90
2023-03-25T11:59:17.706Z,8.43
2023-03-25T12:01:48.426Z,4.93
2023-03-25T12:04:20.904Z,8.13
2023-03-25T12:07:09.170Z,4.72
2023-03-25T12:09:37.829Z,5.97
2023-03-25T12:12:21.548Z,6.82
2023-03-25T12:15:20.558Z,5.53
2023-03-25T12:18:09.698Z,7.55
2023-03-25T12:20:42.278Z,7.43
2023-03-25T12:23:30.776Z,3.78
2023-03-25T12:26:17.690Z,3.85
2023-03-25T12:29:10.409Z,5.93
2023-03-25T12:31:52.208Z,4.13
2023-03-25T12:34:30.909Z,3.88
2023-03-25T12:37:22.507Z,7.57
2023-03-25T12:40:11.256Z,5.22
2023-03-25T12:42:56.003Z,4.40
2023-03-25T12:45:41.928Z,4.30
2023-03-25T12:48:33.395Z,5.68
2023-03-25T12:51:14.879Z,4.93
2023-03-25T12:54:02.008Z,5.78
2023-03-25T12:56:47.232Z,9.50
2023-03-25T12:59:39.592Z,5.85
2023-03-25T13:02:24.015Z,4.75
2023-03-25T13:05:00.104Z,6.25
2023-03-25T13:07:34.767Z,6.47
2023-03-25T13:10:19.623Z,6.95
2023-03-25T13:13:00.209Z,9.43
2023-03-25T13:15:35.263Z,7.20
2023-03-25T13:18:19.518Z,9.25
2023-03-25T13:21:13.874Z,10.60
2023-03-25T13:23:41.208Z,9.05
2023-03-25T13:26:11.779Z,6.97
2023-03-25T13:28:46.831Z,7.30
2023-03-25T13:31:24.189Z,6.90
2023-03-25T13:34:01.854Z,5.72
2023-03-25T13:36:31.645Z,7.78
2023-03-25T13:39:20.431Z,5.63
2023-03-25T13:41:52.131Z,9.48
2023-03-25T13:44:22.031Z,9.90
2023-03-25T13:46:57.471Z,8.90
2023-03-25T13:49:31.010Z,9.93
2023-03-25T13:51:58.163Z,9.23
2023-03-25T13:54:30.321Z,9.18
2023-03-25T13:57:00.529Z,8.23
2023-03-25T13:59:52.063Z,8.60
2023-03-25T14:02:31.679Z,6.97
2023-03-25T14:05:29.329Z,8.73
2023-03-25T14:08:08.055Z,15.73
2023-03-25T14:10:38.992Z,19.58
2023-03-25T14:13:12.578Z,9.73
2023-03-25T14:15:42.626Z,8.52
2023-03-25T14:18:16.724Z,7.72
2023-03-25T14:20:43.451Z,6.53
2023-03-25T14:23:14.240Z,8.32
2023-03-25T14:25:45.730Z,8.20
2023-03-25T14:28:16.786Z,10.95
2023-03-25T14:30:44.005Z,8.32
2023-03-25T14:33:11.628Z,8.50
2023-03-25T14:35:47.197Z,8.25
2023-03-25T14:38:18.073Z,6.20
2023-03-25T14:43:37.655Z,7.32
2023-03-25T14:46:12.110Z,13.00
2023-03-25T14:48:46.364Z,6.20
2023-03-25T14:51:28.355Z,9.10
2023-03-25T14:54:06.558Z,8.15
2023-03-25T14:56:44.140Z,7.13
2023-03-25T14:59:18.586Z,6.10
2023-03-25T15:01:45.796Z,6.07
2023-03-25T15:04:23.794Z,6.68
2023-03-25T15:06:51.934Z,5.20
2023-03-25T15:09:18.714Z,7.32
2023-03-25T15:12:00.924Z,4.65
2023-03-25T15:14:31.594Z,6.35
2023-03-25T15:17:00.945Z,5.22
2023-03-25T15:19:27.976Z,4.40
2023-03-25T15:21:57.821Z,6.72
2023-03-25T15:24:36.608Z,6.15
2023-03-25T15:27:12.614Z,5.68
2023-03-25T15:29:59.411Z,5.63
2023-03-25T15:32:43.428Z,6.20
2023-03-25T15:35:28.998Z,6.65
2023-03-25T15:38:26.221Z,5.85
2023-03-25T15:41:32.358Z,4.50
2023-03-25T15:44:19.935Z,5.90
2023-03-25T15:47:10.762Z,4.18
2023-03-25T15:50:13.419Z,4.78
2023-03-25T15:53:01.326Z,7.53
2023-03-25T15:55:38.315Z,5.10
2023-03-25T15:58:07.549Z,5.75
2023-03-25T16:00:47.126Z,4.18
2023-03-25T16:03:15.602Z,7.90
2023-03-25T16:06:01.696Z,7.10
2023-03-25T16:08:38.088Z,4.40
2023-03-25T16:11:34.488Z,5.03
2023-03-25T16:14:14.679Z,4.97
2023-03-25T16:16:55.766Z,5.47
2023-03-25T16:19:34.180Z,6.15
2023-03-25T16:22:02.930Z,4.57
2023-03-25T16:24:33.967Z,5.07
2023-03-25T16:27:14.244Z,4.57
2023-03-25T16:29:46.923Z,5.35
2023-03-25T16:32:19.192Z,5.35
2023-03-25T16:34:46.560Z,4.68
2023-03-25T16:37:14.752Z,9.15
2023-03-25T16:39:41.412Z,10.85
2023-03-25T16:42:36.635Z,10.40
2023-03-25T16:45:03.540Z,9.60
2023-03-25T16:47:33.573Z,9.70
2023-03-25T16:50:00.996Z,11.05
2023-03-25T16:52:29.148Z,5.53
2023-03-25T16:54:55.762Z,7.75
2023-03-25T16:57:29.559Z,14.02
2023-03-25T16:59:56.329Z,10.20
2023-03-25T17:02:28.223Z,7.90
2023-03-25T17:04:58.036Z,7.78
2023-03-25T17:07:26.723Z,8.98
2023-03-25T17:09:55.365Z,7.15
2023-03-25T17:12:22.604Z,4.93
2023-03-25T17:14:50.269Z,8.90
2023-03-25T17:17:22.772Z,8.60
2023-03-25T17:19:51.659Z,5.68
2023-03-25T17:22:39.446Z,8.23
2023-03-25T17:25:32.251Z,4.82
2023-03-25T17:28:08.015Z,3.95
2023-03-25T17:30:42.929Z,4.93
2023-03-25T17:33:15.098Z,2.95
2023-03-25T17:35:42.823Z,4.45
2023-03-25T17:38:16.975Z,4.60
2023-03-25T17:40:44.410Z,13.07
2023-03-25T17:43:20.071Z,8.90
2023-03-25T17:45:47.220Z,12.93
2023-03-25T17:48:19.031Z,15.82
2023-03-25T17:50:56.018Z,9.98
2023-03-25T17:53:23.874Z,7.30
2023-03-25T17:55:51.424Z,6.25
2023-03-25T17:58:18.652Z,9.73
2023-03-25T18:00:47.669Z,8.15
2023-03-25T18:03:20.170Z,8.73
2023-03-25T18:05:50.990Z,8.30
2023-03-25T18:08:17.751Z,6.15
2023-03-25T18:10:44.887Z,6.40
2023-03-25T18:13:12.490Z,10.27
2023-03-25T18:15:40.521Z,7.60
2023-03-25T18:18:07.918Z,6.18
2023-03-25T18:20:36.207Z,10.68
2023-03-25T18:23:03.815Z,7.68
2023-03-25T18:25:31.813Z,11.10
2023-03-25T18:27:58.577Z,9.38
2023-03-25T18:30:59.557Z,6.25
2023-03-25T18:33:26.372Z,8.20
2023-03-25T18:35:53.341Z,9.23
2023-03-25T18:38:24.712Z,10.13
2023-03-25T18:40:52.136Z,10.93
2023-03-25T18:43:19.030Z,8.68
2023-03-25T18:45:48.025Z,8.98
2023-03-25T18:48:21.258Z,7.07
2023-03-25T18:50:55.338Z,7.97
2023-03-25T18:53:23.648Z,13.18
2023-03-25T18:55:51.470Z,7.35
2023-03-25T18:58:23.246Z,8.30
2023-03-25T19:00:53.972Z,6.32
2023-03-25T19:03:30.165Z,10.98
2023-03-25T19:05:59.389Z,8.35
2023-03-25T19:08:26.306Z,11.52
2023-03-25T19:10:57.396Z,7.93
2023-03-25T19:13:28.804Z,12.60
2023-03-25T19:15:55.880Z,8.38
2023-03-25T19:18:26.260Z,9.07
2023-03-25T19:20:53.682Z,8.05
2023-03-25T19:23:20.898Z,10.00
2023-03-25T19:25:48.831Z,7.15
2023-03-25T19:28:17.881Z,7.05
2023-03-25T19:30:47.197Z,8.52
2023-03-25T19:33:16.490Z,9.70
2023-03-25T19:35:49.772Z,12.48
2023-03-25T19:38:23.015Z,6.15
2023-03-25T19:40:50.993Z,8.85
2023-03-25T19:43:18.666Z,7.25
2023-03-25T19:45:45.624Z,5.78
2023-03-25T19:48:12.910Z,6.20
2023-03-25T19:50:41.088Z,8.65
2023-03-25T19:53:08.019Z,5.65
2023-03-25T19:55:34.700Z,6.47
2023-03-25T19:58:02.341Z,4.78
2023-03-25T20:00:29.356Z,6.32
2023-03-25T20:03:01.766Z,3.80
2023-03-25T20:05:29.912Z,4.95
2023-03-25T20:07:56.790Z,4.45
2023-03-25T20:10:28.411Z,4.50
2023-03-25T20:12:55.337Z,3.58
2023-03-25T20:15:22.429Z,6.25
2023-03-25T20:17:49.847Z,5.50
2023-03-25T20:20:18.129Z,4.75
2023-03-25T20:22:45.666Z,6.03
2023-03-25T20:25:14.293Z,5.95
2023-03-25T20:27:47.695Z,6.35
2023-03-25T20:30:20.438Z,3.97
2023-03-25T20:32:48.982Z,5.85
2023-03-25T20:35:17.936Z,5.40
2023-03-25T20:37:46.983Z,4.00
2023-03-25T20:40:16.371Z,4.78
2023-03-25T20:42:43.984Z,13.68
2023-03-25T20:45:11.860Z,5.55
2023-03-25T20:47:38.722Z,5.47
2023-03-25T20:50:05.973Z,3.63
2023-03-25T20:52:32.698Z,5.85
2023-03-25T20:54:59.456Z,5.40
2023-03-25T20:57:26.600Z,7.72
2023-03-25T20:59:53.388Z,6.80
2023-03-25T21:02:20.855Z,6.43
2023-03-25T21:04:48.688Z,5.78
2023-03-25T21:07:19.168Z,6.90
2023-03-25T21:09:48.399Z,4.82
2023-03-25T21:12:15.366Z,5.60
2023-03-25T21:14:42.808Z,4.38
2023-03-25T21:17:09.855Z,4.72
2023-03-25T21:19:36.949Z,4.38
2023-03-25T21:22:04.088Z,4.38
2023-03-25T21:24:33.756Z,5.53
2023-03-25T21:27:00.466Z,2.97
2023-03-25T21:29:27.293Z,3.50
2023-03-25T21:31:54.073Z,8.18
2023-03-25T21:34:22.039Z,7.07
2023-03-25T21:36:49.222Z,3.90
2023-03-25T21:39:16.841Z,5.35
2023-03-25T21:41:43.973Z,4.20
2023-03-25T21:44:12.635Z,5.43
2023-03-25T21:46:40.942Z,8.40
2023-03-25T21:49:08.774Z,4.72
2023-03-25T21:51:42.308Z,4.10
2023-03-25T21:54:10.034Z,3.60
2023-03-25T21:56:42.303Z,3.38
2023-03-25T21:59:09.108Z,4.13
2023-03-25T22:01:41.639Z,2.85
2023-03-25T22:04:08.970Z,4.35
2023-03-25T22:06:37.176Z,4.95
2023-03-25T22:09:08.025Z,6.38
2023-03-25T22:11:35.596Z,4.72
2023-03-25T22:14:02.466Z,4.78
2023-03-25T22:16:29.273Z,4.72
2023-03-25T22:18:56.305Z,6.53
2023-03-25T22:21:25.231Z,3.90
2023-03-25T22:23:54.441Z,4.45
2023-03-25T22:26:21.987Z,3.17
2023-03-25T22:28:51.516Z,3.72
2023-03-25T22:31:21.442Z,3.83
2023-03-25T22:33:50.536Z,6.78
2023-03-25T22:36:17.953Z,4.40
2023-03-25T22:38:45.854Z,3.90
2023-03-25T22:41:13.824Z,5.60
2023-03-25T22:43:40.838Z,3.47
2023-03-25T22:46:07.753Z,9.48
2023-03-25T22:48:34.830Z,3.40
2023-03-25T22:51:01.641Z,4.03
2023-03-25T22:53:28.387Z,2.83
2023-03-25T22:55:57.254Z,4.03
2023-03-25T22:58:28.057Z,10.27
2023-03-25T23:00:55.412Z,5.30
2023-03-25T23:03:22.611Z,4.22
2023-03-25T23:06:00.807Z,3.60
2023-03-25T23:08:31.747Z,1.45
2023-03-25T23:11:16.984Z,3.35
2023-03-25T23:13:45.415Z,2.83
2023-03-25T23:16:14.026Z,6.97
2023-03-25T23:18:41.832Z,3.53
2023-03-25T23:21:15.776Z,2.95
2023-03-25T23:23:53.298Z,4.65
2023-03-25T23:26:37.063Z,3.85
2023-03-25T23:29:05.435Z,3.55
2023-03-25T23:31:35.445Z,4.65
2023-03-25T23:34:04.380Z,4.72
2023-03-25T23:36:31.701Z,3.05
2023-03-25T23:38:59.036Z,4.55
2023-03-25T23:41:26.045Z,3.92
2023-03-25T23:43:54.276Z,6.00
2023-03-25T23:46:21.877Z,3.03
2023-03-25T23:48:48.783Z,3.28
2023-03-25T23:51:20.417Z,3.03
2023-03-25T23:53:48.483Z,5.40
2023-03-25T23:56:16.342Z,4.32
2023-03-25T23:58:43.528Z,2.65
